createdAt,value
2022-12-12T00:01:14.720Z,49.03
2022-12-12T00:03:48.841Z,51.73
2022-12-12T00:06:22.650Z,45.33
2022-12-12T00:08:51.178Z,49.00
2022-12-12T00:11:19.683Z,46.73
2022-12-12T00:13:54.968Z,47.87
2022-12-12T00:16:23.818Z,46.37
2022-12-12T00:18:58.114Z,45.00
2022-12-12T00:21:34.736Z,48.17
2022-12-12T00:24:06.001Z,48.80
2022-12-12T00:26:39.944Z,47.80
2022-12-12T00:29:10.656Z,48.53
2022-12-12T00:31:39.180Z,46.53
2022-12-12T00:34:07.405Z,46.67
2022-12-12T00:36:36.994Z,50.20
2022-12-12T00:39:05.520Z,49.47
2022-12-12T00:41:38.026Z,49.00
2022-12-12T00:44:08.130Z,43.83
2022-12-12T00:46:36.387Z,48.00
2022-12-12T00:49:05.098Z,52.50
2022-12-12T00:51:36.860Z,50.33
2022-12-12T00:54:06.681Z,45.43
2022-12-12T00:56:34.926Z,43.90
2022-12-12T00:59:03.743Z,44.80
2022-12-12T01:01:35.810Z,46.10
2022-12-12T01:04:10.793Z,48.30
2022-12-12T01:06:39.097Z,48.90
2022-12-12T01:09:08.766Z,47.33
2022-12-12T01:11:44.315Z,47.67
2022-12-12T01:14:14.910Z,44.77
2022-12-12T01:16:45.907Z,47.30
2022-12-12T01:19:14.136Z,48.00
2022-12-12T01:21:46.948Z,52.27
2022-12-12T01:24:17.911Z,47.33
2022-12-12T01:26:50.727Z,45.33
2022-12-12T01:29:28.045Z,48.80
2022-12-12T01:32:07.862Z,50.47
2022-12-12T01:34:52.914Z,51.30
2022-12-12T01:37:23.540Z,48.13
2022-12-12T01:39:56.321Z,47.77
2022-12-12T01:42:40.631Z,52.90
2022-12-12T01:45:10.956Z,44.33
2022-12-12T01:47:51.333Z,46.43
2022-12-12T01:50:19.613Z,48.73
2022-12-12T01:52:54.279Z,49.03
2022-12-12T01:55:35.775Z,45.87
2022-12-12T01:58:10.084Z,46.80
2022-12-12T02:00:38.373Z,46.33
2022-12-12T02:03:18.106Z,46.10
2022-12-12T02:05:53.712Z,45.00
2022-12-12T02:08:28.166Z,51.10
2022-12-12T02:10:59.297Z,46.07
2022-12-12T02:13:34.281Z,47.70
2022-12-12T02:16:12.026Z,48.27
2022-12-12T02:18:48.094Z,47.87
2022-12-12T02:21:31.965Z,49.93
2022-12-12T02:24:26.211Z,49.63
2022-12-12T02:27:12.556Z,49.63
2022-12-12T02:30:01.003Z,49.93
2022-12-12T02:32:37.085Z,47.27
2022-12-12T02:35:09.465Z,47.23
2022-12-12T02:37:41.076Z,45.40
2022-12-12T02:40:20.328Z,49.77
2022-12-12T02:42:51.558Z,48.77
2022-12-12T02:45:23.819Z,50.67
2022-12-12T02:47:56.650Z,51.10
2022-12-12T02:50:30.626Z,50.80
2022-12-12T02:53:01.003Z,47.47
2022-12-12T02:55:32.550Z,47.37
2022-12-12T02:58:05.238Z,52.43
2022-12-12T03:00:40.209Z,50.53
2022-12-12T03:03:45.007Z,46.77
2022-12-12T03:06:41.398Z,50.97
2022-12-12T03:09:17.585Z,55.00
2022-12-12T03:11:54.191Z,49.77
2022-12-12T03:14:40.550Z,47.77
2022-12-12T03:17:15.005Z,48.27
2022-12-12T03:19:50.307Z,51.30
2022-12-12T03:22:26.532Z,53.80
2022-12-12T03:24:59.447Z,46.83
2022-12-12T03:27:29.300Z,47.27
2022-12-12T03:29:59.447Z,49.67
2022-12-12T03:32:30.132Z,51.77
2022-12-12T03:35:03.732Z,49.50
2022-12-12T03:37:33.582Z,52.27
2022-12-12T03:40:04.761Z,51.93
2022-12-12T03:42:37.849Z,48.20
2022-12-12T03:47:57.235Z,50.07
2022-12-12T03:50:29.120Z,51.77
2022-12-12T03:52:59.108Z,44.90
2022-12-12T03:55:36.922Z,45.63
2022-12-12T03:58:08.154Z,47.23
2022-12-12T04:00:37.406Z,46.03
2022-12-12T04:03:11.023Z,43.90
2022-12-12T04:06:09.503Z,44.27
2022-12-12T04:08:44.998Z,43.67
2022-12-12T04:11:39.198Z,41.70
2022-12-12T04:14:16.142Z,41.10
2022-12-12T04:16:46.763Z,42.40
2022-12-12T04:19:37.020Z,42.07
2022-12-12T04:22:27.421Z,41.90
2022-12-12T04:25:00.849Z,40.50
2022-12-12T04:27:30.597Z,43.87
2022-12-12T04:30:05.634Z,46.00
2022-12-12T04:32:51.447Z,41.40
2022-12-12T04:35:29.074Z,43.87
2022-12-12T04:38:10.670Z,42.93
2022-12-12T04:40:40.255Z,45.90
2022-12-12T04:43:12.142Z,47.67
2022-12-12T04:45:42.886Z,45.40
2022-12-12T04:48:17.391Z,50.60
2022-12-12T04:50:49.643Z,45.73
2022-12-12T04:53:28.311Z,46.13
2022-12-12T04:55:58.105Z,49.83
2022-12-12T04:58:29.884Z,49.70
2022-12-12T05:01:03.059Z,47.60
2022-12-12T05:03:35.995Z,53.67
2022-12-12T05:06:09.975Z,50.47
2022-12-12T05:08:41.483Z,45.47
2022-12-12T05:11:09.996Z,47.70
2022-12-12T05:13:40.732Z,48.53
2022-12-12T05:16:16.974Z,47.43
2022-12-12T05:18:47.372Z,46.20
2022-12-12T05:21:18.254Z,50.57
2022-12-12T05:23:52.355Z,45.97
2022-12-12T05:26:30.005Z,46.97
2022-12-12T05:29:03.690Z,44.73
2022-12-12T05:31:40.933Z,48.00
2022-12-12T05:34:10.305Z,46.30
2022-12-12T05:36:38.779Z,45.77
2022-12-12T05:39:12.896Z,49.63
2022-12-12T05:41:41.259Z,49.03
2022-12-12T05:44:11.488Z,47.77
2022-12-12T05:46:41.669Z,51.27
2022-12-12T05:49:09.913Z,51.00
2022-12-12T05:51:39.916Z,48.43
2022-12-12T05:54:12.152Z,44.53
2022-12-12T05:56:42.320Z,51.20
2022-12-12T05:59:16.149Z,46.80
2022-12-12T06:01:56.754Z,46.43
2022-12-12T06:04:26.338Z,45.03
2022-12-12T06:07:20.936Z,53.23
2022-12-12T06:09:56.132Z,46.10
2022-12-12T06:12:24.567Z,50.07
2022-12-12T06:14:55.805Z,50.77
2022-12-12T06:17:28.318Z,49.97
2022-12-12T06:19:59.660Z,47.87
2022-12-12T06:22:27.920Z,47.07
2022-12-12T06:25:02.387Z,46.07
2022-12-12T06:27:37.464Z,48.73
2022-12-12T06:30:06.959Z,53.80
2022-12-12T06:32:35.294Z,50.13
2022-12-12T06:35:03.723Z,46.10
2022-12-12T06:37:32.003Z,45.20
2022-12-12T06:40:01.678Z,48.93
2022-12-12T06:42:33.027Z,46.70
2022-12-12T06:45:03.878Z,47.83
2022-12-12T06:47:42.543Z,48.27
2022-12-12T06:50:15.017Z,53.13
2022-12-12T06:52:49.830Z,43.87
2022-12-12T06:55:19.523Z,52.13
2022-12-12T06:57:47.806Z,46.97
2022-12-12T07:00:18.627Z,50.90
2022-12-12T07:02:51.633Z,48.13
2022-12-12T07:05:31.837Z,46.07
2022-12-12T07:08:07.051Z,47.33
2022-12-12T07:10:42.884Z,46.47
2022-12-12T07:13:13.171Z,47.27
2022-12-12T07:15:45.652Z,47.47
2022-12-12T07:18:15.844Z,50.03
2022-12-12T07:20:49.182Z,51.47
2022-12-12T07:23:17.462Z,51.17
2022-12-12T07:25:48.463Z,48.07
2022-12-12T07:28:27.043Z,50.20
2022-12-12T07:30:57.278Z,52.50
2022-12-12T07:33:33.189Z,48.00
2022-12-12T07:36:11.908Z,48.77
2022-12-12T07:38:41.901Z,47.33
2022-12-12T07:41:17.129Z,48.13
2022-12-12T07:43:49.467Z,48.17
2022-12-12T07:46:18.792Z,49.30
2022-12-12T07:48:47.381Z,52.53
2022-12-12T07:51:18.775Z,50.87
2022-12-12T07:53:50.177Z,53.47
2022-12-12T07:56:26.026Z,49.87
2022-12-12T07:58:58.547Z,53.43
2022-12-12T08:01:29.580Z,48.97
2022-12-12T08:04:04.992Z,49.17
2022-12-12T08:06:33.859Z,49.37
2022-12-12T08:09:10.450Z,49.53
2022-12-12T08:11:46.280Z,48.83
2022-12-12T08:14:16.126Z,51.83
2022-12-12T08:16:44.368Z,44.77
2022-12-12T08:19:19.900Z,53.90
2022-12-12T08:21:49.845Z,47.60
2022-12-12T08:24:18.483Z,63.00
2022-12-12T08:26:48.154Z,48.40
2022-12-12T08:29:16.387Z,54.37
2022-12-12T08:31:44.702Z,50.90
2022-12-12T08:34:12.943Z,45.90
2022-12-12T08:36:41.194Z,44.80
2022-12-12T08:39:10.321Z,46.63
2022-12-12T08:41:40.372Z,45.83
2022-12-12T08:44:10.322Z,53.73
2022-12-12T08:46:38.801Z,46.93
2022-12-12T08:49:07.112Z,48.57
2022-12-12T08:51:35.915Z,45.00
2022-12-12T08:54:04.155Z,44.70
2022-12-12T09:10:29.638Z,51.67
2022-12-12T09:12:57.945Z,45.13
2022-12-12T09:15:26.198Z,42.83
2022-12-12T09:17:54.396Z,48.63
2022-12-12T09:20:22.610Z,46.53
2022-12-12T09:22:50.852Z,47.00
2022-12-12T09:25:19.203Z,50.83
2022-12-12T09:27:48.771Z,50.53
2022-12-12T09:30:17.012Z,54.53
2022-12-12T09:32:45.375Z,54.77
2022-12-12T09:35:13.844Z,49.20
2022-12-12T09:37:42.283Z,49.90
2022-12-12T09:40:13.145Z,48.60
2022-12-12T09:42:45.013Z,44.53
2022-12-12T09:45:15.096Z,45.80
2022-12-12T09:47:44.629Z,42.67
2022-12-12T09:50:16.360Z,45.07
2022-12-12T09:52:44.846Z,43.73
2022-12-12T09:55:24.157Z,46.83
2022-12-12T09:57:54.880Z,44.50
2022-12-12T10:00:24.662Z,42.23
2022-12-12T10:03:04.299Z,48.30
2022-12-12T10:05:36.289Z,44.97
2022-12-12T10:08:07.937Z,44.80
2022-12-12T10:10:37.425Z,45.53
2022-12-12T10:13:06.838Z,47.37
2022-12-12T10:15:38.752Z,45.23
2022-12-12T10:18:08.211Z,46.33
2022-12-12T10:20:40.197Z,45.60
2022-12-12T10:23:12.445Z,45.07
2022-12-12T10:25:42.763Z,44.43
2022-12-12T10:28:12.231Z,44.70
2022-12-12T10:30:48.436Z,43.47
2022-12-12T10:33:21.801Z,42.07
2022-12-12T10:35:53.941Z,49.00
2022-12-12T10:38:28.350Z,48.17
2022-12-12T10:41:00.236Z,40.27
2022-12-12T10:43:30.578Z,41.93
2022-12-12T10:46:14.913Z,42.70
2022-12-12T10:48:43.450Z,41.23
2022-12-12T10:51:13.992Z,42.93
2022-12-12T10:53:42.919Z,44.07
2022-12-12T10:56:12.502Z,41.13
2022-12-12T10:58:41.619Z,44.73
2022-12-12T11:01:14.873Z,45.43
2022-12-12T11:03:43.938Z,42.43
2022-12-12T11:06:14.543Z,40.67
2022-12-12T11:08:53.848Z,42.00
2022-12-12T11:11:23.273Z,42.33
2022-12-12T11:13:53.410Z,44.03
2022-12-12T11:16:23.904Z,41.13
2022-12-12T11:18:59.637Z,47.10
2022-12-12T11:21:29.044Z,40.87
2022-12-12T11:23:58.246Z,44.73
2022-12-12T11:26:28.592Z,47.03
2022-12-12T11:28:59.629Z,41.80
2022-12-12T11:31:30.830Z,44.50
2022-12-12T11:34:00.871Z,43.97
2022-12-12T11:39:16.271Z,41.93
2022-12-12T11:41:58.384Z,40.57
2022-12-12T11:44:26.907Z,37.93
2022-12-12T11:46:56.538Z,42.77
2022-12-12T11:49:24.856Z,41.73
2022-12-12T11:51:53.803Z,37.93
2022-12-12T11:54:24.478Z,40.60
2022-12-12T11:56:54.985Z,40.07
2022-12-12T11:59:38.986Z,46.63
2022-12-12T12:02:21.570Z,38.13
2022-12-12T12:04:53.702Z,38.33
2022-12-12T12:07:38.630Z,38.03
2022-12-12T12:10:11.332Z,38.27
2022-12-12T12:12:46.074Z,38.43
2022-12-12T12:15:31.860Z,39.90
2022-12-12T12:18:08.518Z,38.73
2022-12-12T12:20:45.115Z,44.10
2022-12-12T12:23:18.959Z,41.40
2022-12-12T12:25:53.333Z,40.50
2022-12-12T12:28:33.397Z,38.03
2022-12-12T12:31:03.741Z,38.57
2022-12-12T12:33:41.796Z,36.40
2022-12-12T12:36:20.899Z,36.27
2022-12-12T12:39:02.003Z,41.20
2022-12-12T12:41:41.847Z,41.53
2022-12-12T12:44:15.578Z,41.80
2022-12-12T12:46:48.780Z,42.00
2022-12-12T12:49:22.693Z,42.90
2022-12-12T12:51:53.695Z,44.27
2022-12-12T12:54:25.230Z,40.53
2022-12-12T12:56:57.839Z,42.57
2022-12-12T12:59:27.589Z,37.07
2022-12-12T13:01:56.579Z,41.70
2022-12-12T13:04:28.287Z,42.67
2022-12-12T13:07:04.531Z,49.40
2022-12-12T13:09:38.550Z,46.03
2022-12-12T13:12:11.357Z,45.70
2022-12-12T13:14:42.114Z,46.97
2022-12-12T13:17:16.067Z,42.73
2022-12-12T13:19:47.448Z,47.07
2022-12-12T13:22:16.570Z,44.80
2022-12-12T13:24:53.546Z,42.43
2022-12-12T13:27:27.032Z,44.67
2022-12-12T13:29:56.958Z,42.43
2022-12-12T13:32:40.045Z,45.53
2022-12-12T13:35:12.787Z,44.50
2022-12-12T13:37:46.190Z,45.33
2022-12-12T13:40:24.231Z,44.67
2022-12-12T13:42:54.131Z,48.10
2022-12-12T13:45:38.039Z,46.67
2022-12-12T13:48:07.751Z,49.53
2022-12-12T13:50:37.439Z,51.63
2022-12-12T13:53:23.362Z,46.90
2022-12-12T13:56:11.663Z,46.50
2022-12-12T13:58:40.035Z,47.37
2022-12-12T14:01:39.338Z,44.53
2022-12-12T14:04:08.021Z,45.40
2022-12-12T14:06:42.555Z,47.83
2022-12-12T14:09:21.912Z,46.40
2022-12-12T14:11:51.403Z,49.13
2022-12-12T14:14:24.295Z,46.10
2022-12-12T14:16:58.203Z,52.00
2022-12-12T14:19:29.350Z,50.17
2022-12-12T14:21:58.951Z,46.67
2022-12-12T14:24:48.091Z,47.47
2022-12-12T14:27:18.947Z,49.57
2022-12-12T14:29:47.475Z,53.50
2022-12-12T14:32:26.365Z,53.53
2022-12-12T14:35:08.870Z,47.57
2022-12-12T14:37:52.657Z,45.67
2022-12-12T14:40:25.094Z,48.20
2022-12-12T14:43:20.438Z,42.60
2022-12-12T14:45:54.349Z,46.80
2022-12-12T14:48:26.717Z,45.63
2022-12-12T14:51:10.317Z,47.87
2022-12-12T14:53:46.782Z,45.97
2022-12-12T14:56:28.464Z,43.93
2022-12-12T14:58:59.694Z,41.60
2022-12-12T15:01:30.820Z,47.50
2022-12-12T15:03:59.875Z,45.20
2022-12-12T15:06:29.757Z,46.03
2022-12-12T15:09:00.402Z,47.07
2022-12-12T15:11:34.148Z,42.57
2022-12-12T15:14:03.455Z,45.50
2022-12-12T15:16:44.198Z,44.17
2022-12-12T15:19:19.914Z,42.23
2022-12-12T15:21:49.617Z,44.20
2022-12-12T15:24:20.678Z,47.70
2022-12-12T15:26:50.719Z,45.40
2022-12-12T15:29:21.633Z,48.57
2022-12-12T15:31:54.371Z,46.20
2022-12-12T15:34:32.338Z,43.00
2022-12-12T15:37:15.492Z,41.10
2022-12-12T15:39:51.591Z,44.83
2022-12-12T15:42:20.144Z,43.00
2022-12-12T15:44:53.723Z,44.17
2022-12-12T15:47:22.223Z,45.47
2022-12-12T15:49:50.512Z,48.83
2022-12-12T15:52:21.402Z,51.30
2022-12-12T15:54:56.878Z,50.33
2022-12-12T15:57:26.515Z,52.70
2022-12-12T15:59:57.625Z,55.00
2022-12-12T16:02:30.142Z,59.80
2022-12-12T16:05:03.810Z,51.17
2022-12-12T16:07:37.807Z,50.20
2022-12-12T16:10:26.107Z,48.20
2022-12-12T16:13:00.384Z,52.97
2022-12-12T16:15:34.921Z,52.00
2022-12-12T16:18:04.730Z,50.53
2022-12-12T16:20:33.432Z,45.93
2022-12-12T16:23:12.428Z,51.00
2022-12-12T16:25:42.101Z,59.23
2022-12-12T16:28:25.229Z,56.40
2022-12-12T16:30:56.367Z,71.93
2022-12-12T16:33:32.738Z,61.40
2022-12-12T16:36:01.740Z,60.57
2022-12-12T16:38:30.234Z,49.63
2022-12-12T16:41:01.144Z,50.83
2022-12-12T16:43:29.531Z,56.17
2022-12-12T16:45:59.382Z,50.73
2022-12-12T16:48:32.540Z,47.43
2022-12-12T16:51:06.974Z,45.67
2022-12-12T16:53:35.970Z,50.23
2022-12-12T16:56:08.202Z,55.77
2022-12-12T16:58:37.986Z,48.67
2022-12-12T17:01:08.940Z,50.30
2022-12-12T17:03:37.234Z,47.43
2022-12-12T17:06:10.055Z,46.90
2022-12-12T17:08:39.067Z,47.53
2022-12-12T17:11:12.214Z,56.73
2022-12-12T17:13:53.934Z,57.93
2022-12-12T17:16:27.620Z,56.67
2022-12-12T17:18:56.459Z,63.50
2022-12-12T17:21:28.827Z,56.70
2022-12-12T17:24:00.264Z,49.03
2022-12-12T17:26:30.160Z,47.50
2022-12-12T17:29:01.087Z,48.43
2022-12-12T17:34:07.230Z,45.93
2022-12-12T17:36:35.492Z,50.37
2022-12-12T17:39:03.797Z,52.27
2022-12-12T17:42:11.850Z,57.20
2022-12-12T17:45:18.961Z,67.13
2022-12-12T17:47:57.066Z,69.13
2022-12-12T17:50:41.684Z,64.03
2022-12-12T17:53:12.641Z,53.47
2022-12-12T17:55:51.685Z,52.00
2022-12-12T17:58:48.270Z,46.57
2022-12-12T18:01:20.655Z,48.90
2022-12-12T18:03:49.373Z,46.73
2022-12-12T18:06:25.503Z,53.13
2022-12-12T18:09:09.384Z,54.90
2022-12-12T18:11:38.719Z,56.10
2022-12-12T18:14:09.143Z,50.47
2022-12-12T18:16:37.938Z,56.57
2022-12-12T18:19:06.263Z,55.27
2022-12-12T18:21:59.612Z,55.20
2022-12-12T18:24:24.811Z,50.33
2022-12-12T18:26:53.830Z,51.47
2022-12-12T18:29:23.825Z,45.10
2022-12-12T18:31:52.364Z,48.37
2022-12-12T18:34:20.726Z,43.33
2022-12-12T18:36:49.756Z,49.43
2022-12-12T18:39:18.070Z,48.90
2022-12-12T18:41:46.446Z,53.80
2022-12-12T18:44:15.963Z,50.57
2022-12-12T18:46:45.929Z,53.20
2022-12-12T18:49:15.751Z,49.67
2022-12-12T18:51:44.698Z,49.17
2022-12-12T18:54:15.452Z,49.93
2022-12-12T18:56:44.503Z,58.83
2022-12-12T18:59:13.411Z,62.17
2022-12-12T19:01:41.897Z,61.70
2022-12-12T19:04:17.513Z,55.93
2022-12-12T19:06:49.456Z,53.20
2022-12-12T19:09:19.208Z,48.20
2022-12-12T19:11:48.263Z,51.83
2022-12-12T19:14:17.460Z,52.73
2022-12-12T19:16:46.523Z,54.40
2022-12-12T19:19:16.686Z,54.23
2022-12-12T19:21:45.089Z,56.00
2022-12-12T19:24:13.765Z,59.53
2022-12-12T19:26:43.856Z,58.50
2022-12-12T19:29:13.029Z,61.47
2022-12-12T19:31:41.380Z,57.53
2022-12-12T19:34:10.379Z,57.90
2022-12-12T19:36:40.375Z,55.20
2022-12-12T19:39:09.667Z,61.10
2022-12-12T19:41:37.994Z,57.40
2022-12-12T19:44:08.766Z,53.13
2022-12-12T19:46:37.208Z,43.63
2022-12-12T19:49:07.008Z,47.50
2022-12-12T19:51:36.142Z,40.90
2022-12-12T19:54:07.411Z,41.23
2022-12-12T19:56:36.347Z,47.47
2022-12-12T19:59:05.181Z,42.80
2022-12-12T20:01:34.202Z,40.47
2022-12-12T20:04:05.401Z,42.53
2022-12-12T20:06:40.860Z,42.57
2022-12-12T20:09:11.108Z,44.03
2022-12-12T20:11:39.923Z,44.40
2022-12-12T20:14:08.281Z,44.93
2022-12-12T20:16:36.555Z,48.13
2022-12-12T20:19:04.886Z,47.13
2022-12-12T20:24:25.448Z,46.83
2022-12-12T20:26:54.231Z,43.30
2022-12-12T20:29:23.290Z,42.77
2022-12-12T20:31:51.546Z,39.63
2022-12-12T20:34:21.654Z,38.17
2022-12-12T20:36:50.295Z,41.10
2022-12-12T20:39:21.246Z,48.90
2022-12-12T20:41:53.135Z,46.37
2022-12-12T20:44:22.432Z,44.13
2022-12-12T20:46:50.701Z,39.90
2022-12-12T20:49:19.851Z,38.13
2022-12-12T20:51:57.253Z,43.30
2022-12-12T20:54:26.563Z,44.03
2022-12-12T20:56:56.298Z,45.17
2022-12-12T20:59:24.662Z,45.13
2022-12-12T21:01:53.335Z,45.77
2022-12-12T21:04:22.030Z,42.37
2022-12-12T21:06:51.341Z,47.93
2022-12-12T21:09:24.241Z,45.97
2022-12-12T21:12:00.660Z,45.47
2022-12-12T21:14:33.344Z,47.43
2022-12-12T21:17:01.618Z,47.93
2022-12-12T21:19:29.836Z,45.90
2022-12-12T21:21:58.060Z,43.37
2022-12-12T21:24:26.860Z,45.93
2022-12-12T21:26:55.192Z,45.23
2022-12-12T21:29:23.535Z,42.87
2022-12-12T21:31:53.268Z,42.60
2022-12-12T21:34:22.313Z,45.23
2022-12-12T21:36:54.133Z,43.30
2022-12-12T21:39:22.975Z,47.17
2022-12-12T21:41:51.376Z,47.23
2022-12-12T21:44:19.839Z,46.13
2022-12-12T21:46:48.199Z,47.03
2022-12-12T21:49:25.959Z,47.80
2022-12-12T21:51:55.016Z,43.73
2022-12-12T21:54:23.750Z,42.40
2022-12-12T21:56:51.927Z,41.47
2022-12-12T21:59:20.134Z,43.33
2022-12-12T22:01:48.394Z,37.37
2022-12-12T22:04:18.054Z,40.57
2022-12-12T22:06:47.118Z,37.93
2022-12-12T22:09:15.476Z,40.03
2022-12-12T22:11:49.216Z,42.97
2022-12-12T22:14:21.317Z,42.97
2022-12-12T22:16:49.657Z,42.63
2022-12-12T22:19:19.656Z,41.00
2022-12-12T22:21:48.326Z,38.30
2022-12-12T22:24:17.007Z,40.77
2022-12-12T22:26:46.074Z,41.13
2022-12-12T22:29:15.268Z,40.43
2022-12-12T22:31:43.784Z,41.67
2022-12-12T22:34:13.150Z,41.93
2022-12-12T22:36:42.896Z,37.17
2022-12-12T22:39:14.441Z,38.17
2022-12-12T22:41:42.695Z,40.90
2022-12-12T22:44:14.059Z,36.80
2022-12-12T22:46:44.054Z,38.53
2022-12-12T22:49:13.902Z,40.50
2022-12-12T22:51:43.752Z,39.17
2022-12-12T22:54:12.297Z,36.57
2022-12-12T22:56:41.134Z,40.07
2022-12-12T22:59:09.471Z,38.67
2022-12-12T23:01:37.798Z,38.43
2022-12-12T23:04:06.231Z,36.87
2022-12-12T23:06:35.526Z,39.37
2022-12-12T23:09:07.051Z,37.60
2022-12-12T23:11:36.588Z,39.07
2022-12-12T23:14:06.027Z,35.77
2022-12-12T23:16:35.376Z,36.53
2022-12-12T23:19:04.398Z,38.40
2022-12-12T23:21:32.630Z,35.93
2022-12-12T23:24:00.851Z,38.13
2022-12-12T23:26:31.242Z,36.53
2022-12-12T23:28:59.637Z,37.77
2022-12-12T23:31:29.023Z,35.30
2022-12-12T23:33:58.265Z,35.37
2022-12-12T23:36:26.758Z,33.63
2022-12-12T23:38:56.530Z,33.60
2022-12-12T23:41:25.119Z,36.73
2022-12-12T23:43:54.856Z,36.37
2022-12-12T23:46:29.696Z,38.10
2022-12-12T23:48:58.401Z,36.23
2022-12-12T23:51:27.383Z,35.90
2022-12-12T23:53:56.872Z,36.27
2022-12-12T23:56:25.388Z,35.87
2022-12-12T23:58:55.080Z,37.40
